Capitol Logistics 7459

Operating for MZN



KCLT
Charlotte/Douglas International Airport
Charlotte, North Carolina
KAFW
Fort Worth Alliance Airport
Fort Worth, Texas

Activity Log

Date Flight Route Aircraft Duration
No Flights Yet

Route Details

Aircraft Information
Primary: Boeing 737-800BCF
Backup: Boeing 757-200SF
Route Data
Distance: 825nm
Duration: 2h 14m
Recm'd Route: BOBZY4 BOBZY BRAYN GQO CRAMM PONYY TRUUK2
Origin Wx: KCLT 180252Z 03006KT 10SM BKN075 16/05 A2986 RMK AO2 SLP107 T01560050 51012
Dest. Wx: KAFW 180253Z 33006KT 10SM BKN150 BKN210 12/05 A3014 RMK AO2 SLP208 T01170050 53019 $
Notes: